Time;durP1;ratioP1;P1;durP2;ratioP2;P2;SDS_P1;SDS_P2;PMS_P1;PMS_P2;Temp;Humidity;BMP_temperature;BMP_pressure;BME280_temperature;BME280_humidity;BME280_pressure;Samples;Min_cycle;Max_cycle;Signal;HPM_P1;HPM_P2
2024/01/01 00:00:43;;;;;;;8.55;6.80;;;;;;;6.10;68.88;95914.91;4976284;28;20058;-77
2024/01/01 00:03:10;;;;;;;12.65;8.65;;;;;;;6.03;68.32;95909.63;4976174;28;20050;-77
2024/01/01 00:05:39;;;;;;;46.95;35.05;;;;;;;6.00;68.16;95914.34;4976128;28;20047;-77
2024/01/01 00:08:07;;;;;;;28.65;19.80;;;;;;;5.97;68.79;95910.31;4976479;28;20061;-77
2024/01/01 00:10:35;;;;;;;22.30;13.88;;;;;;;5.96;68.58;95914.66;4976545;28;20187;-77
2024/01/01 00:13:03;;;;;;;15.48;10.00;;;;;;;5.93;68.72;95915.00;4975691;28;20515;-77
2024/01/01 00:15:30;;;;;;;13.88;9.07;;;;;;;5.93;68.31;95914.19;4976101;28;20106;-77
2024/01/01 00:17:58;;;;;;;11.65;7.20;;;;;;;5.93;69.10;95914.19;4975893;28;20101;-77
2024/01/01 00:20:26;;;;;;;21.52;13.93;;;;;;;5.92;68.28;95912.56;4975787;28;20057;-77
2024/01/01 00:22:54;;;;;;;13.85;8.40;;;;;;;5.91;69.09;95916.13;4975740;28;20492;-77
2024/01/01 00:25:22;;;;;;;8.38;4.93;;;;;;;5.93;69.09;95912.41;4976535;28;20070;-77
2024/01/01 00:27:50;;;;;;;12.65;7.07;;;;;;;5.95;69.04;95917.44;4975962;28;20134;-77
2024/01/01 00:30:17;;;;;;;21.55;11.82;;;;;;;5.96;69.42;95919.84;4976115;28;20082;-77
2024/01/01 00:32:45;;;;;;;13.93;7.53;;;;;;;5.95;69.10;95912.28;4975574;28;20155;-77
2024/01/01 00:35:13;;;;;;;9.05;4.55;;;;;;;5.94;68.53;95920.97;4976111;28;20434;-77
2024/01/01 00:37:40;;;;;;;8.52;5.63;;;;;;;5.92;67.91;95917.72;4976127;28;20134;-77
2024/01/01 00:40:10;;;;;;;14.30;8.43;;;;;;;5.91;68.20;95921.31;4975700;28;20392;-77
2024/01/01 00:42:39;;;;;;;13.63;6.95;;;;;;;5.94;68.55;95920.97;4975300;28;20512;-77
2024/01/01 00:45:07;;;;;;;9.35;5.78;;;;;;;5.97;68.56;95918.09;4975391;28;20050;-77
2024/01/01 00:47:35;;;;;;;7.63;5.13;;;;;;;5.95;68.31;95923.41;4976030;28;20098;-77
2024/01/01 00:50:04;;;;;;;8.18;5.40;;;;;;;5.95;68.96;95922.63;4975758;28;20059;-77
2024/01/01 00:52:31;;;;;;;11.77;5.65;;;;;;;5.94;68.47;95920.97;4975458;28;20050;-77
2024/01/01 00:55:00;;;;;;;9.50;5.45;;;;;;;5.93;68.18;95925.34;4975548;28;20054;-77
2024/01/01 00:57:28;;;;;;;10.13;6.50;;;;;;;5.91;68.54;95927.28;4975518;28;20515;-77
2024/01/01 00:59:56;;;;;;;8.77;5.60;;;;;;;5.88;68.45;95925.06;4975597;28;20133;-77
2024/01/01 01:02:23;;;;;;;9.73;6.28;;;;;;;5.88;68.18;95922.47;4975026;28;20122;-77
2024/01/01 01:04:52;;;;;;;6.95;5.55;;;;;;;5.88;68.80;95921.63;4975587;28;20141;-77
2024/01/01 01:07:32;;;;;;;7.85;5.85;;;;;;;5.92;69.70;95923.72;4975240;28;20145;-77
2024/01/01 01:10:00;;;;;;;12.32;6.80;;;;;;;5.97;70.01;95920.66;4975049;28;20082;-78
2024/01/01 01:12:29;;;;;;;9.07;6.10;;;;;;;6.00;69.26;95925.50;4974910;28;20496;-77
2024/01/01 01:14:56;;;;;;;11.32;7.05;;;;;;;6.02;69.84;95926.13;4975256;28;20137;-77
2024/01/01 01:17:24;;;;;;;12.75;6.93;;;;;;;6.02;69.08;95933.91;4975035;28;20043;-77
2024/01/01 01:19:51;;;;;;;12.02;6.75;;;;;;;6.03;70.11;95919.97;4975064;28;20056;-78
2024/01/01 01:22:19;;;;;;;10.98;6.50;;;;;;;6.04;70.25;95926.78;4974598;28;20078;-77
2024/01/01 01:24:46;;;;;;;9.70;5.72;;;;;;;6.05;69.08;95923.19;4974203;28;20524;-77
2024/01/01 01:27:14;;;;;;;8.32;5.57;;;;;;;6.06;68.86;95921.44;4974803;28;20051;-77
2024/01/01 01:29:43;;;;;;;10.05;5.43;;;;;;;6.08;69.30;95933.22;4975051;28;20101;-77
2024/01/01 01:32:11;;;;;;;7.95;4.95;;;;;;;6.10;69.41;95927.88;4974454;28;20046;-77
2024/01/01 01:34:39;;;;;;;8.45;5.07;;;;;;;6.12;69.46;95934.50;4974772;28;20051;-77
2024/01/01 01:37:07;;;;;;;10.45;5.20;;;;;;;6.15;68.91;95939.34;4974708;28;20046;-77
2024/01/01 01:39:35;;;;;;;11.38;5.68;;;;;;;6.16;68.83;95935.75;4975048;28;20047;-77
2024/01/01 01:42:03;;;;;;;7.70;5.03;;;;;;;6.17;68.38;95927.03;4974481;28;20051;-77
2024/01/01 01:44:33;;;;;;;9.35;5.57;;;;;;;6.16;68.79;95929.78;4974653;28;20058;-77
2024/01/01 01:47:02;;;;;;;8.27;4.50;;;;;;;6.14;68.69;95929.13;4974601;28;20049;-77
2024/01/01 01:49:30;;;;;;;7.05;4.68;;;;;;;6.15;68.58;95934.16;4974280;28;20062;-77
2024/01/01 01:51:58;;;;;;;7.57;5.25;;;;;;;6.13;68.78;95928.34;4973793;28;20073;-77
2024/01/01 01:54:26;;;;;;;6.63;4.55;;;;;;;6.13;68.72;95917.97;4974421;28;20141;-78
2024/01/01 01:56:54;;;;;;;7.25;4.55;;;;;;;6.13;69.57;95927.53;4974554;28;20065;-78
2024/01/01 01:59:23;;;;;;;8.25;4.45;;;;;;;6.11;68.49;95927.69;4974373;28;20057;-77
2024/01/01 02:01:51;;;;;;;6.75;4.43;;;;;;;6.10;68.62;95926.09;4973901;28;20057;-77
2024/01/01 02:04:20;;;;;;;8.48;4.50;;;;;;;6.13;69.14;95930.13;4974136;28;20046;-77
2024/01/01 02:06:47;;;;;;;7.13;4.05;;;;;;;6.13;68.28;95930.94;4974394;28;20078;-78
2024/01/01 02:09:15;;;;;;;7.28;3.95;;;;;;;6.14;68.67;95921.38;4974352;28;20531;-77
2024/01/01 02:11:43;;;;;;;5.40;3.40;;;;;;;6.12;67.78;95926.75;4975078;28;20046;-78
2024/01/01 02:14:12;;;;;;;8.32;4.03;;;;;;;6.11;68.26;95922.53;4977245;28;20050;-77
2024/01/01 02:16:40;;;;;;;10.40;4.45;;;;;;;6.11;68.12;95926.91;4976685;28;20057;-77
2024/01/01 02:19:17;;;;;;;7.95;4.00;;;;;;;6.11;67.38;95917.34;4974472;28;20062;-77
2024/01/01 02:21:46;;;;;;;6.47;4.20;;;;;;;6.11;67.59;95916.53;4973979;28;20141;-77
2024/01/01 02:24:15;;;;;;;7.00;3.72;;;;;;;6.12;67.99;95907.78;4975874;28;20062;-77
2024/01/01 02:26:43;;;;;;;7.57;3.55;;;;;;;6.13;67.96;95909.41;4975288;28;20042;-77
2024/01/01 02:29:11;;;;;;;5.38;3.78;;;;;;;6.14;68.57;95906.66;4980915;28;20058;-77
2024/01/01 02:31:39;;;;;;;6.63;4.03;;;;;;;6.16;68.57;95920.22;4995078;28;20047;-77
2024/01/01 02:34:06;;;;;;;7.85;3.88;;;;;;;6.16;67.84;95915.03;4994628;28;20047;-78
2024/01/01 02:36:36;;;;;;;4.80;3.60;;;;;;;6.14;68.03;95916.19;4994265;28;20102;-77
2024/01/01 02:39:05;;;;;;;13.32;3.58;;;;;;;6.13;68.58;95928.34;4983717;28;20134;-77
2024/01/01 02:41:35;;;;;;;5.68;3.38;;;;;;;6.09;68.57;95914.13;4979055;28;20046;-77
2024/01/01 02:44:04;;;;;;;5.35;3.13;;;;;;;6.07;68.29;95921.25;4978948;28;20141;-78
2024/01/01 02:46:31;;;;;;;4.57;2.28;;;;;;;6.05;68.20;95925.78;4978903;28;20110;-78
2024/01/01 02:48:59;;;;;;;6.20;3.00;;;;;;;6.02;68.11;95923.56;4978313;28;20431;-77
2024/01/01 02:51:27;;;;;;;6.45;3.25;;;;;;;6.02;69.18;95928.72;4977947;28;20051;-77
2024/01/01 02:53:54;;;;;;;4.85;3.08;;;;;;;6.02;69.52;95927.94;4977950;28;20146;-77
2024/01/01 02:56:24;;;;;;;4.15;2.90;;;;;;;5.98;69.24;95928.25;4978179;28;20057;-77
2024/01/01 02:58:55;;;;;;;5.40;3.17;;;;;;;5.97;70.05;95931.03;4978149;28;20050;-77
2024/01/01 03:01:22;;;;;;;4.45;3.20;;;;;;;5.96;70.38;95930.19;4977511;28;20059;-77
2024/01/01 03:03:50;;;;;;;4.60;3.25;;;;;;;5.96;69.56;95921.63;4977717;28;20086;-77
2024/01/01 03:06:19;;;;;;;5.20;3.30;;;;;;;5.95;69.55;95923.41;4994558;28;20058;-77
2024/01/01 03:08:47;;;;;;;6.88;3.45;;;;;;;5.94;70.01;95920.97;5001300;28;20248;-77
2024/01/01 03:11:15;;;;;;;6.15;3.13;;;;;;;5.94;69.74;95928.72;5001431;28;20065;-77
2024/01/01 03:13:43;;;;;;;5.90;3.70;;;;;;;5.94;69.87;95931.31;4992885;28;20058;-77
2024/01/01 03:16:11;;;;;;;4.13;3.63;;;;;;;5.95;69.72;95931.19;4977975;28;20516;-78
2024/01/01 03:18:39;;;;;;;5.80;3.10;;;;;;;5.95;69.83;95932.97;4980341;28;20057;-77
2024/01/01 03:21:07;;;;;;;4.82;3.67;;;;;;;5.95;69.98;95932.97;4981636;28;20051;-77
2024/01/01 03:23:34;;;;;;;5.50;3.45;;;;;;;5.95;69.99;95936.38;4980810;28;20054;-77
2024/01/01 03:26:02;;;;;;;4.63;2.88;;;;;;;5.94;69.75;95933.91;4981066;28;20086;-76
2024/01/01 03:28:29;;;;;;;5.28;3.60;;;;;;;5.93;69.44;95925.34;4980633;28;20050;-77
2024/01/01 03:30:57;;;;;;;8.25;3.95;;;;;;;5.94;70.42;95936.50;4981114;28;20078;-77
2024/01/01 03:33:26;;;;;;;5.38;3.33;;;;;;;5.96;70.37;95929.41;4979569;28;20073;-77
2024/01/01 03:35:54;;;;;;;6.32;3.33;;;;;;;5.97;70.55;95925.84;4981131;28;20047;-77
2024/01/01 03:38:21;;;;;;;5.95;3.63;;;;;;;5.97;71.03;95920.66;4980363;28;20138;-77
2024/01/01 03:40:49;;;;;;;5.38;3.70;;;;;;;5.95;70.59;95927.81;4979177;28;20050;-77
2024/01/01 03:43:16;;;;;;;4.63;3.50;;;;;;;5.95;71.08;95932.97;4976645;28;20093;-77
2024/01/01 03:45:44;;;;;;;5.22;3.70;;;;;;;5.97;71.03;95931.03;4976935;28;20055;-77
2024/01/01 03:48:12;;;;;;;6.25;3.88;;;;;;;5.94;71.19;95926.13;4975929;28;20085;-77
2024/01/01 03:50:41;;;;;;;5.25;3.10;;;;;;;5.96;72.13;95940.56;4976629;28;20170;-77
2024/01/01 03:53:09;;;;;;;5.65;3.47;;;;;;;5.98;70.84;95938.59;4976194;28;20047;-77
2024/01/01 03:55:37;;;;;;;5.60;3.53;;;;;;;5.98;69.93;95937.81;4976815;28;20050;-77
2024/01/01 03:58:04;;;;;;;6.20;3.50;;;;;;;5.95;69.97;95938.16;4976646;28;20055;-77
2024/01/01 04:00:32;;;;;;;6.57;3.92;;;;;;;5.94;69.97;95945.09;4976435;28;20055;-77
2024/01/01 04:03:00;;;;;;;4.75;3.08;;;;;;;5.92;69.51;95947.00;4976017;28;20480;-77
2024/01/01 04:05:28;;;;;;;5.50;3.55;;;;;;;5.93;69.75;95951.22;4976535;28;20386;-78
2024/01/01 04:07:57;;;;;;;5.97;3.53;;;;;;;5.97;71.31;95949.94;4976612;28;20150;-77
2024/01/01 04:10:25;;;;;;;8.73;4.25;;;;;;;6.00;70.89;95945.41;4976744;28;20401;-77
2024/01/01 04:12:53;;;;;;;8.90;3.63;;;;;;;5.99;69.62;95952.34;4976074;28;20050;-77
2024/01/01 04:15:20;;;;;;;7.07;4.00;;;;;;;5.95;69.34;95953.69;4975986;28;20082;-77
2024/01/01 04:17:48;;;;;;;6.80;3.80;;;;;;;5.93;69.17;95947.84;4976517;28;20489;-77
2024/01/01 04:20:16;;;;;;;7.47;4.10;;;;;;;5.90;69.30;95945.56;4976304;28;20475;-77
2024/01/01 04:22:45;;;;;;;4.78;3.65;;;;;;;5.85;69.13;95938.31;4975818;28;20493;-77
2024/01/01 04:25:14;;;;;;;5.50;3.80;;;;;;;5.81;68.93;95941.41;4976184;28;20054;-77
2024/01/01 04:27:42;;;;;;;5.35;3.40;;;;;;;5.74;69.33;95941.28;4975891;28;20523;-77
2024/01/01 04:30:10;;;;;;;6.43;4.20;;;;;;;5.69;69.17;95954.72;4975794;28;20545;-77
2024/01/01 04:32:38;;;;;;;8.15;4.53;;;;;;;5.67;69.37;95943.72;4975719;28;20496;-77
2024/01/01 04:35:06;;;;;;;4.88;3.47;;;;;;;5.65;69.53;95942.28;4976261;28;20459;-77
2024/01/01 04:37:33;;;;;;;7.30;3.47;;;;;;;5.63;69.15;95955.38;4975448;28;20492;-77
2024/01/01 04:40:02;;;;;;;6.75;3.03;;;;;;;5.65;70.01;95948.25;4976121;28;20078;-77
2024/01/01 04:42:31;;;;;;;5.28;2.83;;;;;;;5.67;70.04;95946.31;4975323;28;20071;-77
2024/01/01 04:44:58;;;;;;;5.93;2.47;;;;;;;5.70;69.93;95940.78;4975780;28;20061;-77
2024/01/01 04:47:25;;;;;;;5.07;2.20;;;;;;;5.75;70.06;95930.75;4975691;28;20575;-77
2024/01/01 04:49:53;;;;;;;6.05;2.55;;;;;;;5.81;70.06;95939.63;4975678;28;20046;-77
2024/01/01 04:52:21;;;;;;;4.32;2.72;;;;;;;5.86;70.09;95939.94;4975106;28;20114;-77
2024/01/01 04:54:48;;;;;;;4.95;2.58;;;;;;;5.91;69.95;95942.03;4975514;28;20055;-77
2024/01/01 04:57:16;;;;;;;4.82;3.25;;;;;;;5.92;69.71;95944.41;4975553;28;20137;-77
2024/01/01 04:59:45;;;;;;;6.53;3.22;;;;;;;5.90;69.79;95943.81;4975454;28;20130;-77
2024/01/01 05:02:14;;;;;;;6.85;3.30;;;;;;;5.92;70.57;95949.59;4974915;28;20055;-77
2024/01/01 05:04:42;;;;;;;5.72;3.35;;;;;;;5.94;70.57;95946.84;4975145;28;20101;-77
2024/01/01 05:07:10;;;;;;;5.40;3.00;;;;;;;5.97;70.80;95951.75;4974945;28;20061;-77
2024/01/01 05:09:37;;;;;;;4.72;3.30;;;;;;;5.97;69.86;95943.97;4974970;28;20052;-77
2024/01/01 05:12:05;;;;;;;4.90;2.85;;;;;;;5.97;70.19;95939.59;4974843;28;20061;-77
2024/01/01 05:14:33;;;;;;;4.57;2.92;;;;;;;6.01;70.71;95941.84;4974919;28;20050;-77
2024/01/01 05:17:02;;;;;;;7.72;3.55;;;;;;;6.01;70.96;95953.00;4975128;28;20347;-77
2024/01/01 05:19:29;;;;;;;6.43;3.35;;;;;;;6.03;70.45;95943.28;4974937;28;20054;-77
2024/01/01 05:21:59;;;;;;;6.22;3.20;;;;;;;6.02;70.45;95952.03;4974634;28;20050;-77
2024/01/01 05:24:26;;;;;;;5.00;3.35;;;;;;;6.03;70.76;95948.44;4975691;28;20495;-77
2024/01/01 05:26:54;;;;;;;9.18;4.07;;;;;;;6.02;69.62;95952.03;4974816;28;20137;-77
2024/01/01 05:29:22;;;;;;;9.20;3.90;;;;;;;5.98;70.61;95948.97;4974963;28;20133;-77
2024/01/01 05:31:49;;;;;;;5.25;3.42;;;;;;;5.97;71.01;95952.53;4974382;28;20138;-77
2024/01/01 05:34:18;;;;;;;6.93;2.67;;;;;;;5.91;70.46;95953.19;4974736;28;20061;-77
2024/01/01 05:36:46;;;;;;;6.18;3.13;;;;;;;5.85;70.27;95956.44;4974887;28;20114;-77
2024/01/01 05:39:14;;;;;;;5.75;3.30;;;;;;;5.83;70.02;95970.53;4974827;28;20047;-77
2024/01/01 05:41:42;;;;;;;4.90;3.20;;;;;;;5.77;69.69;95972.81;4974414;28;20491;-78
2024/01/01 05:44:09;;;;;;;4.88;2.90;;;;;;;5.73;70.61;95971.53;4974685;28;20562;-77
2024/01/01 05:46:37;;;;;;;6.22;2.95;;;;;;;5.72;70.52;95958.75;4974564;28;20057;-80
2024/01/01 05:49:05;;;;;;;3.20;2.03;;;;;;;5.72;69.70;95969.09;4976847;28;20204;-77
2024/01/01 05:51:34;;;;;;;4.00;2.83;;;;;;;5.70;69.75;95971.03;4977263;28;20117;-77
2024/01/01 05:54:02;;;;;;;7.00;3.33;;;;;;;5.64;69.64;95959.59;4977132;28;20118;-77
2024/01/01 05:56:29;;;;;;;5.68;3.25;;;;;;;5.58;69.58;95968.81;4974949;28;20071;-77
2024/01/01 05:58:57;;;;;;;6.60;2.90;;;;;;;5.54;69.27;95972.69;4974625;28;20138;-77
2024/01/01 06:01:24;;;;;;;5.22;3.40;;;;;;;5.51;69.48;95978.22;4974230;28;20054;-76
2024/01/01 06:03:52;;;;;;;6.80;3.72;;;;;;;5.49;69.26;95977.56;4973996;28;20059;-77
2024/01/01 06:06:20;;;;;;;7.88;3.58;;;;;;;5.49;69.89;95979.34;4974406;28;20059;-77
2024/01/01 06:08:48;;;;;;;4.97;2.78;;;;;;;5.50;69.46;95973.19;4974470;28;20083;-77
2024/01/01 06:11:16;;;;;;;2.78;1.60;;;;;;;5.51;69.55;95978.22;4973637;28;20055;-77
2024/01/01 06:13:45;;;;;;;7.55;1.50;;;;;;;5.56;69.30;95980.31;4974033;28;20074;-77
2024/01/01 06:16:13;;;;;;;6.55;1.60;;;;;;;5.61;69.83;95983.19;4973959;28;20050;-77
2024/01/01 06:18:41;;;;;;;1.17;0.80;;;;;;;5.66;68.56;95998.22;4974461;28;20423;-77
2024/01/01 06:21:09;;;;;;;4.10;1.13;;;;;;;5.69;68.01;96001.28;4974267;28;20047;-77
2024/01/01 06:23:38;;;;;;;5.20;0.70;;;;;;;5.72;68.44;96006.13;4974035;28;20078;-77
2024/01/01 06:26:08;;;;;;;4.20;1.40;;;;;;;5.77;67.99;96009.03;4974097;28;20047;-77
2024/01/01 06:28:36;;;;;;;3.55;0.75;;;;;;;5.82;67.45;95999.97;4973938;28;20054;-77
2024/01/01 06:31:04;;;;;;;2.67;0.90;;;;;;;5.86;67.85;96006.41;4973860;28;20059;-77
2024/01/01 06:33:32;;;;;;;6.63;1.20;;;;;;;5.90;67.46;96021.47;4973401;28;20137;-77
2024/01/01 06:35:59;;;;;;;5.35;1.25;;;;;;;5.93;67.08;96036.66;4973793;28;20057;-78
2024/01/01 06:38:27;;;;;;;3.38;0.80;;;;;;;5.96;66.64;96020.00;4973920;28;20409;-77
2024/01/01 06:40:55;;;;;;;2.85;0.70;;;;;;;6.00;66.93;96023.06;4973599;28;20053;-77
2024/01/01 06:43:24;;;;;;;4.18;1.35;;;;;;;6.03;66.64;96026.13;4973476;28;20531;-77
2024/01/01 06:45:52;;;;;;;5.28;1.45;;;;;;;6.07;66.63;96035.16;4973702;28;20504;-77
2024/01/01 06:48:19;;;;;;;4.05;0.70;;;;;;;6.10;66.28;96029.69;4973865;28;20085;-77
2024/01/01 06:50:47;;;;;;;2.95;0.88;;;;;;;6.13;66.70;96031.91;4974194;28;20047;-77
2024/01/01 06:53:15;;;;;;;3.22;0.60;;;;;;;6.15;66.68;96037.75;4972939;28;20137;-77
2024/01/01 06:55:42;;;;;;;4.07;0.70;;;;;;;6.20;66.58;96039.81;4977655;28;20054;-77
2024/01/01 06:58:10;;;;;;;3.88;0.98;;;;;;;6.24;66.49;96045.50;4984122;28;20089;-77
2024/01/01 07:00:39;;;;;;;3.97;0.82;;;;;;;6.26;65.85;96040.94;4994387;28;20043;-77
2024/01/01 07:03:06;;;;;;;3.10;0.73;;;;;;;6.29;65.49;96048.38;4994882;28;20089;-77
2024/01/01 07:05:34;;;;;;;4.93;1.00;;;;;;;6.31;65.67;96046.41;4989846;28;20078;-77
2024/01/01 07:08:03;;;;;;;4.03;1.10;;;;;;;6.34;66.00;96043.47;4977190;28;20050;-77
2024/01/01 07:10:31;;;;;;;5.78;1.33;;;;;;;6.37;65.90;96032.81;4975376;28;20145;-77
2024/01/01 07:12:59;;;;;;;5.22;0.95;;;;;;;6.41;65.82;96044.44;4974528;28;20106;-77
2024/01/01 07:15:26;;;;;;;3.38;0.70;;;;;;;6.45;65.92;96042.31;4974273;28;20133;-77
2024/01/01 07:17:55;;;;;;;4.65;0.90;;;;;;;6.48;65.28;96049.75;4974206;28;20057;-77
2024/01/01 07:20:27;;;;;;;3.35;1.15;;;;;;;6.49;65.56;96046.16;4973821;28;20047;-77
2024/01/01 07:22:54;;;;;;;4.20;1.15;;;;;;;6.52;64.68;96043.25;4973372;28;20054;-77
2024/01/01 07:25:22;;;;;;;9.38;1.88;;;;;;;6.51;64.19;96037.25;4977145;28;20133;-77
2024/01/01 07:27:50;;;;;;;5.75;0.80;;;;;;;6.52;64.75;96051.84;4977323;28;20053;-77
2024/01/01 07:30:17;;;;;;;11.25;1.80;;;;;;;6.52;63.81;96044.06;4977091;28;20053;-77
2024/01/01 07:32:45;;;;;;;4.50;0.90;;;;;;;6.49;63.27;96049.56;4976811;28;20118;-77
2024/01/01 07:35:14;;;;;;;4.70;0.77;;;;;;;6.50;64.64;96053.78;4976966;28;20050;-77
2024/01/01 07:37:42;;;;;;;3.33;1.50;;;;;;;6.50;63.53;96051.19;4976887;28;20061;-77
2024/01/01 07:40:11;;;;;;;1.83;0.60;;;;;;;6.54;63.08;96068.03;4979412;28;20051;-77
2024/01/01 07:42:38;;;;;;;2.38;1.08;;;;;;;6.54;62.72;96068.03;4976451;28;20057;-77
2024/01/01 07:45:06;;;;;;;1.88;0.60;;;;;;;6.56;62.61;96066.06;4976991;28;20051;-77
2024/01/01 07:47:34;;;;;;;3.88;1.02;;;;;;;6.59;63.35;96073.50;4976949;28;20074;-77
2024/01/01 07:50:02;;;;;;;5.68;1.05;;;;;;;6.62;63.12;96080.13;4976937;28;20043;-77
2024/01/01 07:52:31;;;;;;;6.55;1.17;;;;;;;6.60;63.47;96088.06;4977307;28;20173;-77
2024/01/01 07:54:58;;;;;;;4.90;1.10;;;;;;;6.61;62.91;96088.88;4976387;28;20051;-77
2024/01/01 07:57:26;;;;;;;5.47;1.33;;;;;;;6.59;63.50;96091.63;4978128;28;20130;-77
2024/01/01 07:59:56;;;;;;;4.03;1.13;;;;;;;6.58;63.11;96095.22;4976097;28;20093;-77
2024/01/01 08:02:24;;;;;;;1.40;0.82;;;;;;;6.54;63.10;96099.13;4975908;28;20146;-77
2024/01/01 08:04:54;;;;;;;3.70;1.75;;;;;;;6.49;63.23;96095.41;4976222;28;20047;-77
2024/01/01 08:07:22;;;;;;;3.45;1.05;;;;;;;6.45;63.61;96094.94;4976722;28;20097;-77
2024/01/01 08:09:51;;;;;;;2.95;1.40;;;;;;;6.44;64.41;96103.69;4976388;28;20134;-77
2024/01/01 08:12:19;;;;;;;2.85;1.15;;;;;;;6.43;64.52;96096.91;4976211;28;20109;-77
2024/01/01 08:14:46;;;;;;;2.05;1.25;;;;;;;6.42;64.44;96100.44;4976236;28;20065;-77
2024/01/01 08:17:14;;;;;;;5.05;1.40;;;;;;;6.41;63.67;96106.63;4993227;28;20054;-77
2024/01/01 08:19:42;;;;;;;2.65;1.45;;;;;;;6.41;64.72;96091.06;5000171;28;20037;-77
2024/01/01 08:22:09;;;;;;;2.42;0.95;;;;;;;6.44;64.68;96102.88;5000012;28;20035;-76
2024/01/01 08:24:37;;;;;;;2.35;1.23;;;;;;;6.43;64.82;96091.72;4993452;28;20084;-77
2024/01/01 08:27:06;;;;;;;2.80;1.30;;;;;;;6.42;64.65;96097.84;4978162;28;20047;-77
2024/01/01 08:29:34;;;;;;;3.53;1.42;;;;;;;6.38;64.40;96099.16;4976988;28;20082;-77
2024/01/01 08:32:03;;;;;;;5.13;1.48;;;;;;;6.35;64.56;96104.69;4977194;28;20061;-77
2024/01/01 08:34:31;;;;;;;5.00;1.33;;;;;;;6.34;64.45;96105.66;4977904;28;20047;-77
2024/01/01 08:36:59;;;;;;;3.08;1.40;;;;;;;6.37;65.44;96115.69;4978765;28;20055;-77
2024/01/01 08:39:27;;;;;;;3.15;1.13;;;;;;;6.38;64.46;96120.72;4978059;28;20114;-77
2024/01/01 08:41:55;;;;;;;4.75;1.98;;;;;;;6.40;64.11;96123.13;4991649;28;20065;-77
2024/01/01 08:44:23;;;;;;;1.67;1.02;;;;;;;6.39;64.45;96124.09;4998195;28;20034;-77
2024/01/01 08:46:51;;;;;;;2.10;1.20;;;;;;;6.38;64.31;96125.06;4998374;28;20035;-77
2024/01/01 08:49:19;;;;;;;2.65;1.30;;;;;;;6.39;64.22;96131.88;4980924;28;20082;-77
2024/01/01 08:51:46;;;;;;;3.45;1.38;;;;;;;6.41;64.23;96132.53;4975742;28;20051;-77
2024/01/01 08:54:16;;;;;;;3.22;1.45;;;;;;;6.45;64.34;96128.63;4975864;28;20055;-77
2024/01/01 08:56:44;;;;;;;2.20;1.00;;;;;;;6.51;64.21;96138.31;4975664;28;20077;-77
2024/01/01 08:59:12;;;;;;;3.58;1.30;;;;;;;6.56;63.80;96136.03;4975966;28;20084;-77
2024/01/01 09:01:44;;;;;;;3.17;1.15;;;;;;;6.62;63.42;96136.31;4975108;28;20504;-77
2024/01/01 09:04:11;;;;;;;3.92;0.95;;;;;;;6.65;64.33;96135.97;4975361;28;20053;-77
2024/01/01 09:06:39;;;;;;;6.47;2.00;;;;;;;6.70;64.29;96134.50;4975099;28;20582;-77
2024/01/01 09:09:10;;;;;;;3.85;1.23;;;;;;;6.73;63.41;96138.53;4974984;28;20109;-77
2024/01/01 09:11:37;;;;;;;3.38;1.27;;;;;;;6.71;63.43;96143.91;4975039;28;20086;-77
2024/01/01 09:14:05;;;;;;;4.45;1.17;;;;;;;6.68;63.59;96152.00;4975109;28;20080;-77
2024/01/01 09:16:32;;;;;;;6.20;2.45;;;;;;;6.67;63.50;96152.16;4974920;28;20051;-77
2024/01/01 09:19:01;;;;;;;4.57;1.00;;;;;;;6.66;63.27;96159.16;4975166;28;20051;-77
2024/01/01 09:21:29;;;;;;;4.55;1.10;;;;;;;6.65;63.55;96156.72;4975108;28;20047;-77
2024/01/01 09:24:00;;;;;;;2.65;1.17;;;;;;;6.65;63.82;96159.31;4974823;28;20530;-77
2024/01/01 09:26:28;;;;;;;3.28;1.00;;;;;;;6.68;64.52;96156.41;4978365;28;20087;-77
2024/01/01 09:28:57;;;;;;;1.98;0.75;;;;;;;6.72;65.22;96165.44;4978510;28;20121;-77
2024/01/01 09:31:24;;;;;;;4.90;1.90;;;;;;;6.78;65.46;96162.19;4976359;28;20459;-78
2024/01/01 09:33:53;;;;;;;6.13;2.67;;;;;;;6.86;64.97;96154.34;4975256;28;20082;-77
2024/01/01 09:36:22;;;;;;;39.80;24.00;;;;;;;6.95;64.98;96144.75;4975370;28;20424;-80
2024/01/01 09:38:49;;;;;;;8.48;2.65;;;;;;;7.01;64.40;96152.66;4981591;28;20074;-78
2024/01/01 09:41:17;;;;;;;3.22;1.23;;;;;;;7.08;64.08;96152.00;4974292;28;20051;-78
2024/01/01 09:43:44;;;;;;;3.40;0.85;;;;;;;7.13;63.86;96157.50;4974512;28;20059;-79
2024/01/01 09:46:14;;;;;;;4.53;0.90;;;;;;;7.19;62.93;96141.22;4974010;28;20104;-79
2024/01/01 09:48:42;;;;;;;5.65;1.23;;;;;;;7.22;63.05;96146.88;4974342;28;20485;-78
2024/01/01 09:51:09;;;;;;;3.45;1.20;;;;;;;7.30;62.64;96143.41;4974176;28;20066;-78
2024/01/01 09:53:38;;;;;;;2.45;0.60;;;;;;;7.40;61.93;96141.41;4974657;28;20129;-79
2024/01/01 09:56:07;;;;;;;2.75;1.10;;;;;;;7.51;61.36;96152.38;4974492;28;20156;-79
2024/01/01 09:58:41;;;;;;;3.55;0.70;;;;;;;7.61;61.94;96148.56;4973915;28;20508;-78
2024/01/01 10:01:10;;;;;;;4.22;1.17;;;;;;;7.74;61.57;96147.97;4973930;28;20046;-79
2024/01/01 10:03:38;;;;;;;4.18;1.48;;;;;;;7.83;61.25;96146.94;4973837;28;20132;-78
2024/01/01 10:06:10;;;;;;;2.85;0.75;;;;;;;7.95;59.34;96143.91;4974333;28;20118;-78
2024/01/01 10:08:39;;;;;;;3.10;0.93;;;;;;;8.04;59.35;96140.25;4974033;28;20430;-78
2024/01/01 10:11:19;;;;;;;18.85;8.73;;;;;;;8.14;59.55;96140.00;4973998;28;20051;-78
2024/01/01 10:13:47;;;;;;;18.92;9.25;;;;;;;8.18;59.45;96134.28;4973539;28;20086;-78
2024/01/01 10:16:25;;;;;;;5.55;1.80;;;;;;;8.24;58.13;96135.34;4974476;28;20105;-78
2024/01/01 10:18:55;;;;;;;3.97;1.10;;;;;;;8.30;58.09;96136.44;4973978;28;20109;-79
2024/01/01 10:21:28;;;;;;;5.43;1.58;;;;;;;8.35;57.24;96132.31;4973550;28;20051;-78
2024/01/01 10:23:58;;;;;;;4.53;1.05;;;;;;;8.38;57.54;96112.94;4973985;28;20057;-78
2024/01/01 10:26:29;;;;;;;5.32;1.63;;;;;;;8.40;57.47;96142.16;4974077;28;20078;-79
2024/01/01 10:28:58;;;;;;;6.25;1.00;;;;;;;8.42;56.77;96130.63;4973784;28;20057;-79
2024/01/01 10:31:26;;;;;;;2.88;0.73;;;;;;;8.48;57.37;96139.50;4973723;28;20098;-79
2024/01/01 10:33:55;;;;;;;3.53;0.70;;;;;;;8.56;57.68;96152.41;4973614;28;20130;-79
2024/01/01 10:36:23;;;;;;;3.58;1.10;;;;;;;8.58;56.34;96134.84;4973565;28;20138;-78
2024/01/01 10:38:51;;;;;;;3.45;0.80;;;;;;;8.61;56.41;96144.06;4973488;28;20051;-79
2024/01/01 10:41:20;;;;;;;4.45;0.80;;;;;;;8.62;56.55;96164.69;4973356;28;20568;-78
2024/01/01 10:43:51;;;;;;;2.70;0.80;;;;;;;8.68;55.79;96151.94;4973000;28;20508;-78
2024/01/01 10:46:20;;;;;;;1.80;0.65;;;;;;;8.71;56.37;96149.00;4973675;28;20059;-79
2024/01/01 10:48:49;;;;;;;2.30;0.80;;;;;;;8.72;56.39;96145.41;4973514;28;20047;-79
2024/01/01 10:51:28;;;;;;;20.33;9.60;;;;;;;8.77;55.49;96146.47;4973243;28;20051;-78
2024/01/01 10:54:08;;;;;;;11.43;5.50;;;;;;;8.84;55.02;96159.56;4973442;28;20051;-78
2024/01/01 10:56:48;;;;;;;29.88;15.00;;;;;;;8.89;55.38;96162.41;4973356;28;20050;-79
2024/01/01 10:59:19;;;;;;;26.52;12.55;;;;;;;8.96;54.87;96145.09;4976812;28;20127;-79
2024/01/01 11:01:50;;;;;;;5.00;2.03;;;;;;;9.05;55.00;96136.22;4976901;28;20078;-79
2024/01/01 11:04:20;;;;;;;3.40;0.93;;;;;;;9.16;54.17;96147.09;4977485;28;20280;-79
2024/01/01 11:06:48;;;;;;;5.10;0.93;;;;;;;9.27;54.86;96150.06;4977369;28;20050;-79
2024/01/01 11:09:32;;;;;;;2.92;1.33;;;;;;;9.44;53.89;96140.19;4977408;28;20050;-79
2024/01/01 11:12:02;;;;;;;4.20;0.82;;;;;;;9.61;53.61;96148.56;4976780;28;20085;-79
2024/01/01 11:14:31;;;;;;;5.72;1.35;;;;;;;9.74;53.31;96144.47;4977695;28;20050;-79
2024/01/01 11:17:02;;;;;;;2.40;0.60;;;;;;;9.79;52.75;96142.09;4977300;28;20046;-79
2024/01/01 11:19:39;;;;;;;4.55;0.68;;;;;;;9.79;53.02;96148.13;4977088;28;20146;-79
2024/01/01 11:22:30;;;;;;;7.28;0.93;;;;;;;9.82;51.92;96137.34;4976644;28;20050;-79
2024/01/01 11:25:00;;;;;;;5.68;1.00;;;;;;;9.80;52.75;96135.94;4977024;28;20134;-79
2024/01/01 11:27:31;;;;;;;3.55;0.90;;;;;;;9.83;53.11;96143.34;4977166;28;20130;-79
2024/01/01 11:30:03;;;;;;;4.20;0.75;;;;;;;9.81;51.93;96138.31;4976855;28;20047;-79
2024/01/01 11:32:31;;;;;;;3.30;0.85;;;;;;;9.80;51.93;96133.31;4976074;28;20497;-79
2024/01/01 11:35:07;;;;;;;2.90;1.15;;;;;;;9.79;53.01;96137.69;4984096;28;20051;-79
2024/01/01 11:37:35;;;;;;;4.40;1.40;;;;;;;9.77;52.32;96134.47;4979206;28;20059;-79
2024/01/01 11:40:04;;;;;;;4.22;1.00;;;;;;;9.73;52.31;96140.25;4988305;28;20055;-79
2024/01/01 11:42:35;;;;;;;3.45;0.88;;;;;;;9.66;52.05;96148.00;4997881;28;20110;-79
2024/01/01 11:45:10;;;;;;;4.68;0.85;;;;;;;9.58;51.84;96135.13;4996005;28;20054;-79
2024/01/01 11:47:38;;;;;;;3.20;1.00;;;;;;;9.51;52.87;96139.44;4979299;28;20427;-79